createdAt,value
2017-08-09T00:00:06.213Z,17.31
2017-08-09T00:02:34.146Z,17.31
2017-08-09T00:05:01.996Z,17.30
2017-08-09T00:07:29.848Z,17.33
2017-08-09T00:09:57.647Z,17.34
2017-08-09T00:12:25.565Z,17.34
2017-08-09T00:14:53.295Z,17.37
2017-08-09T00:17:21.074Z,17.36
2017-08-09T00:19:48.897Z,17.25
2017-08-09T00:22:16.766Z,17.08
2017-08-09T00:24:44.597Z,17.01
2017-08-09T00:27:12.476Z,17.00
2017-08-09T00:29:40.316Z,17.02
2017-08-09T00:32:08.157Z,17.05
2017-08-09T00:34:35.996Z,17.10
2017-08-09T00:37:03.852Z,17.18
2017-08-09T00:39:31.725Z,17.25
2017-08-09T00:41:59.574Z,17.34
2017-08-09T00:44:27.430Z,17.41
2017-08-09T00:46:55.285Z,17.46
2017-08-09T00:49:23.084Z,17.50
2017-08-09T00:51:50.921Z,17.54
2017-08-09T00:54:18.831Z,17.53
2017-08-09T00:56:46.666Z,17.53
2017-08-09T00:59:14.526Z,17.54
2017-08-09T01:01:42.387Z,17.55
2017-08-09T01:04:10.290Z,17.58
2017-08-09T01:06:38.133Z,17.61
2017-08-09T01:09:05.964Z,17.63
2017-08-09T01:11:33.832Z,17.61
2017-08-09T01:14:01.681Z,17.61
2017-08-09T01:16:29.566Z,17.59
2017-08-09T01:18:57.387Z,17.57
2017-08-09T01:21:25.171Z,17.55
2017-08-09T01:23:52.929Z,17.53
2017-08-09T01:26:20.694Z,17.52
2017-08-09T01:28:48.543Z,17.51
2017-08-09T01:31:16.441Z,17.43
2017-08-09T01:33:44.239Z,17.38
2017-08-09T01:36:12.072Z,17.35
2017-08-09T01:38:39.861Z,17.35
2017-08-09T01:41:07.735Z,17.32
2017-08-09T01:43:35.465Z,17.30
2017-08-09T01:46:03.319Z,17.27
2017-08-09T01:48:31.072Z,17.20
2017-08-09T01:50:58.944Z,17.17
2017-08-09T01:53:26.838Z,17.12
2017-08-09T01:55:54.700Z,17.00
2017-08-09T01:58:22.569Z,16.94
2017-08-09T02:00:50.448Z,16.90
2017-08-09T02:03:18.333Z,16.87
2017-08-09T02:05:46.168Z,16.80
2017-08-09T02:08:14.046Z,16.75
2017-08-09T02:10:41.880Z,16.67
2017-08-09T02:13:09.748Z,16.60
2017-08-09T02:15:37.596Z,16.59
2017-08-09T02:18:05.468Z,16.59
2017-08-09T02:20:33.204Z,16.59
2017-08-09T02:23:01.128Z,16.59
2017-08-09T02:25:28.953Z,16.59
2017-08-09T02:27:56.679Z,16.58
2017-08-09T02:30:24.554Z,16.56
2017-08-09T02:32:52.360Z,16.54
2017-08-09T02:35:20.227Z,16.42
2017-08-09T02:37:48.043Z,16.33
2017-08-09T02:40:15.920Z,16.29
2017-08-09T02:42:43.745Z,16.28
2017-08-09T02:45:11.617Z,16.32
2017-08-09T02:47:39.456Z,16.36
2017-08-09T02:50:07.299Z,16.39
2017-08-09T02:52:35.096Z,16.44
2017-08-09T02:55:02.973Z,16.48
2017-08-09T02:57:30.800Z,16.50
2017-08-09T02:59:58.629Z,16.52
2017-08-09T03:02:26.540Z,16.52
2017-08-09T03:04:54.384Z,16.49
2017-08-09T03:07:22.252Z,16.42
2017-08-09T03:09:50.058Z,16.39
2017-08-09T03:12:17.915Z,16.38
2017-08-09T03:14:45.737Z,16.35
2017-08-09T03:17:13.593Z,16.32
2017-08-09T03:19:41.396Z,16.30
2017-08-09T03:22:09.271Z,16.27
2017-08-09T03:24:37.114Z,16.23
2017-08-09T03:27:04.987Z,16.14
2017-08-09T03:29:32.812Z,16.05
2017-08-09T03:32:00.645Z,16.02
2017-08-09T03:34:28.523Z,15.98
2017-08-09T03:36:56.272Z,15.94
2017-08-09T03:39:24.151Z,15.92
2017-08-09T03:41:51.975Z,15.88
2017-08-09T03:44:19.865Z,15.85
2017-08-09T03:46:47.676Z,15.80
2017-08-09T03:49:15.567Z,15.74
2017-08-09T03:51:43.377Z,15.67
2017-08-09T03:54:11.264Z,15.64
2017-08-09T03:56:39.071Z,15.61
2017-08-09T03:59:06.946Z,15.55
2017-08-09T04:01:34.799Z,15.49
2017-08-09T04:04:02.652Z,15.43
2017-08-09T04:06:30.515Z,15.43
2017-08-09T04:08:58.368Z,15.46
2017-08-09T04:11:26.250Z,15.48
2017-08-09T04:13:54.098Z,15.48
2017-08-09T04:16:21.969Z,15.49
2017-08-09T04:18:49.792Z,15.50
2017-08-09T04:21:17.664Z,15.51
2017-08-09T04:23:45.496Z,15.48
2017-08-09T04:26:13.275Z,15.48
2017-08-09T04:28:41.088Z,15.51
2017-08-09T04:31:08.971Z,15.54
2017-08-09T04:33:36.798Z,15.55
2017-08-09T04:36:04.630Z,15.55
2017-08-09T04:38:32.507Z,15.55
2017-08-09T04:41:00.324Z,15.64
2017-08-09T04:43:28.152Z,15.70
2017-08-09T04:45:55.886Z,15.74
2017-08-09T04:48:23.678Z,15.76
2017-08-09T04:50:51.389Z,15.83
2017-08-09T04:53:19.143Z,15.86
2017-08-09T04:55:46.877Z,15.85
2017-08-09T04:58:14.652Z,15.86
2017-08-09T05:00:42.403Z,15.89
2017-08-09T05:03:10.216Z,15.92
2017-08-09T05:05:37.929Z,16.01
2017-08-09T05:08:05.753Z,16.21
2017-08-09T05:10:33.540Z,16.68
2017-08-09T05:13:01.316Z,17.30
2017-08-09T05:15:29.077Z,17.66
2017-08-09T05:17:56.818Z,17.79
2017-08-09T05:20:24.592Z,17.96
2017-08-09T05:22:52.310Z,18.59
2017-08-09T05:25:20.135Z,19.00
2017-08-09T05:27:47.866Z,19.19
2017-08-09T05:30:15.643Z,19.21
2017-08-09T05:32:43.373Z,19.46
2017-08-09T05:35:11.146Z,19.81
2017-08-09T05:37:38.928Z,20.30
2017-08-09T05:40:06.645Z,20.72
2017-08-09T05:42:34.459Z,20.63
2017-08-09T05:45:02.217Z,19.85
2017-08-09T05:47:30.000Z,18.85
2017-08-09T05:49:57.745Z,18.15
2017-08-09T05:52:25.537Z,17.63
2017-08-09T05:54:53.380Z,17.25
2017-08-09T05:57:21.272Z,17.00
2017-08-09T05:59:49.014Z,16.93
2017-08-09T06:02:16.850Z,16.82
2017-08-09T06:04:44.578Z,16.72
2017-08-09T06:07:12.286Z,16.72
2017-08-09T06:09:40.064Z,16.79
2017-08-09T06:12:07.827Z,16.92
2017-08-09T06:14:35.637Z,17.11
2017-08-09T06:17:03.452Z,17.29
2017-08-09T06:19:31.544Z,17.38
2017-08-09T06:21:59.264Z,17.34
2017-08-09T06:24:27.062Z,17.38
2017-08-09T06:26:54.804Z,17.34
2017-08-09T06:29:22.607Z,17.37
2017-08-09T06:31:50.374Z,17.49
2017-08-09T06:34:18.164Z,17.62
2017-08-09T06:36:45.893Z,17.69
2017-08-09T06:39:13.645Z,17.82
2017-08-09T06:41:41.411Z,17.88
2017-08-09T06:44:09.176Z,18.01
2017-08-09T06:46:36.956Z,18.12
2017-08-09T06:49:04.756Z,18.20
2017-08-09T06:51:32.528Z,18.22
2017-08-09T06:54:00.257Z,18.36
2017-08-09T06:56:28.043Z,18.46
2017-08-09T06:58:55.825Z,18.54
2017-08-09T07:01:23.661Z,18.65
2017-08-09T07:03:51.416Z,18.82
2017-08-09T07:06:19.189Z,18.98
2017-08-09T07:08:46.917Z,19.05
2017-08-09T07:11:14.734Z,19.16
2017-08-09T07:13:42.548Z,19.25
2017-08-09T07:16:10.332Z,19.37
2017-08-09T07:18:38.142Z,19.55
2017-08-09T07:21:05.888Z,19.69
2017-08-09T07:23:33.656Z,19.82
2017-08-09T07:26:01.421Z,19.97
2017-08-09T07:28:29.206Z,20.06
2017-08-09T07:30:56.974Z,20.09
2017-08-09T07:33:24.732Z,20.26
2017-08-09T07:35:52.444Z,20.41
2017-08-09T07:38:20.241Z,20.39
2017-08-09T07:40:47.954Z,20.56
2017-08-09T07:43:15.678Z,20.71
2017-08-09T07:45:43.548Z,20.83
2017-08-09T07:48:11.269Z,21.06
2017-08-09T07:50:39.131Z,21.08
2017-08-09T07:53:06.840Z,21.05
2017-08-09T07:55:34.606Z,21.22
2017-08-09T07:58:02.344Z,21.34
2017-08-09T08:00:30.163Z,21.40
2017-08-09T08:02:57.926Z,21.58
2017-08-09T08:05:25.731Z,21.73
2017-08-09T08:07:53.548Z,21.81
2017-08-09T08:10:21.390Z,21.99
2017-08-09T08:12:49.313Z,22.05
2017-08-09T08:15:17.156Z,22.11
2017-08-09T08:17:45.052Z,22.29
2017-08-09T08:20:12.893Z,22.36
2017-08-09T08:22:40.769Z,22.52
2017-08-09T08:25:08.510Z,22.57
2017-08-09T08:27:36.281Z,22.54
2017-08-09T08:30:04.081Z,22.38
2017-08-09T08:32:31.873Z,22.32
2017-08-09T08:34:59.577Z,22.44
2017-08-09T08:37:27.341Z,22.65
2017-08-09T08:39:55.073Z,22.93
2017-08-09T08:42:22.796Z,23.23
2017-08-09T08:44:50.571Z,23.30
2017-08-09T08:47:18.478Z,23.31
2017-08-09T08:49:46.388Z,23.31
2017-08-09T08:52:14.260Z,23.51
2017-08-09T08:54:42.211Z,23.57
2017-08-09T08:57:10.046Z,23.54
2017-08-09T08:59:38.156Z,23.39
2017-08-09T09:02:06.027Z,23.55
2017-08-09T09:04:33.927Z,23.55
2017-08-09T09:07:01.797Z,23.40
2017-08-09T09:09:29.625Z,23.45
2017-08-09T09:11:57.517Z,23.60
2017-08-09T09:14:25.369Z,23.76
2017-08-09T09:16:53.184Z,23.99
2017-08-09T09:19:21.068Z,24.21
2017-08-09T09:21:48.964Z,24.29
2017-08-09T09:24:17.777Z,24.12
2017-08-09T09:26:45.576Z,24.15
2017-08-09T09:29:13.494Z,24.27
2017-08-09T09:31:41.433Z,24.36
2017-08-09T09:34:09.376Z,24.34
2017-08-09T09:36:37.282Z,24.14
2017-08-09T09:39:05.130Z,24.03
2017-08-09T09:41:33.103Z,23.72
2017-08-09T09:44:01.014Z,23.48
2017-08-09T09:46:28.866Z,23.52
2017-08-09T09:48:56.831Z,23.27
2017-08-09T09:51:24.696Z,23.38
2017-08-09T09:53:52.624Z,23.77
2017-08-09T09:56:20.437Z,23.89
2017-08-09T09:58:48.349Z,23.66
2017-08-09T10:01:16.214Z,23.30
2017-08-09T10:03:44.193Z,22.82
2017-08-09T10:06:12.056Z,22.84
2017-08-09T10:08:39.809Z,22.84
2017-08-09T10:11:07.537Z,22.67
2017-08-09T10:13:35.319Z,22.77
2017-08-09T10:16:03.067Z,23.33
2017-08-09T10:18:30.823Z,23.68
2017-08-09T10:20:58.552Z,23.99
2017-08-09T10:23:26.585Z,23.91
2017-08-09T10:25:54.345Z,23.35
2017-08-09T10:28:22.112Z,23.03
2017-08-09T10:30:50.024Z,22.97
2017-08-09T10:33:17.783Z,23.08
2017-08-09T10:35:45.551Z,23.14
2017-08-09T10:38:13.385Z,23.18
2017-08-09T10:40:41.259Z,23.20
2017-08-09T10:43:09.109Z,23.05
2017-08-09T10:45:36.982Z,22.87
2017-08-09T10:48:04.838Z,22.70
2017-08-09T10:50:32.725Z,22.63
2017-08-09T10:53:00.474Z,22.62
2017-08-09T10:55:28.349Z,22.69
2017-08-09T10:57:56.309Z,22.71
2017-08-09T11:00:24.184Z,22.73
2017-08-09T11:02:51.919Z,22.89
2017-08-09T11:05:19.684Z,23.54
2017-08-09T11:07:47.597Z,24.12
2017-08-09T11:10:15.423Z,24.66
2017-08-09T11:12:43.213Z,24.95
2017-08-09T11:15:10.985Z,24.62
2017-08-09T11:17:38.727Z,24.17
2017-08-09T11:20:08.622Z,23.70
2017-08-09T11:22:36.471Z,23.21
2017-08-09T11:25:04.199Z,22.94
2017-08-09T11:27:31.999Z,23.01
2017-08-09T11:29:59.738Z,23.63
2017-08-09T11:32:27.506Z,24.33
2017-08-09T11:34:55.233Z,25.04
2017-08-09T11:37:23.046Z,25.46
2017-08-09T11:39:50.895Z,25.53
2017-08-09T11:42:18.737Z,25.09
2017-08-09T11:44:46.592Z,24.61
2017-08-09T11:47:14.433Z,24.48
2017-08-09T11:49:42.320Z,24.65
2017-08-09T11:52:10.144Z,24.73
2017-08-09T11:54:38.004Z,24.52
2017-08-09T11:57:05.842Z,24.19
2017-08-09T11:59:33.721Z,23.85
2017-08-09T12:02:01.590Z,23.48
2017-08-09T12:04:29.497Z,23.23
2017-08-09T12:06:57.318Z,23.13
2017-08-09T12:09:25.182Z,23.17
2017-08-09T12:11:53.026Z,23.48
2017-08-09T12:14:20.900Z,23.74
2017-08-09T12:16:48.699Z,24.04
2017-08-09T12:19:16.520Z,24.30
2017-08-09T12:21:44.406Z,24.62
2017-08-09T12:24:12.237Z,24.99
2017-08-09T12:26:40.138Z,25.43
2017-08-09T12:29:07.984Z,25.40
2017-08-09T12:31:35.883Z,25.20
2017-08-09T12:34:03.614Z,25.23
2017-08-09T12:36:31.513Z,25.18
2017-08-09T12:38:59.356Z,25.09
2017-08-09T12:41:27.249Z,24.86
2017-08-09T12:43:55.107Z,24.57
2017-08-09T12:46:23.021Z,24.03
2017-08-09T12:48:50.861Z,23.71
2017-08-09T12:51:18.696Z,23.51
2017-08-09T12:53:46.571Z,23.51
2017-08-09T12:56:14.421Z,23.77
2017-08-09T12:58:42.329Z,24.15
2017-08-09T13:01:10.081Z,24.22
2017-08-09T13:03:38.015Z,24.13
2017-08-09T13:06:05.906Z,24.31
2017-08-09T13:08:33.783Z,24.21
2017-08-09T13:11:01.667Z,24.52
2017-08-09T13:13:29.552Z,24.56
2017-08-09T13:15:57.393Z,24.42
2017-08-09T13:18:25.267Z,24.65
2017-08-09T13:20:53.094Z,25.09
2017-08-09T13:23:20.915Z,25.35
2017-08-09T13:25:48.792Z,25.55
2017-08-09T13:28:16.620Z,25.59
2017-08-09T13:30:44.485Z,25.64
2017-08-09T13:33:12.342Z,25.33
2017-08-09T13:35:40.257Z,24.67
2017-08-09T13:38:08.100Z,24.20
2017-08-09T13:40:35.956Z,24.11
2017-08-09T13:43:03.806Z,24.13
2017-08-09T13:45:31.574Z,24.39
2017-08-09T13:47:59.394Z,24.96
2017-08-09T13:50:27.265Z,25.50
2017-08-09T13:52:55.116Z,25.56
2017-08-09T13:55:22.941Z,25.62
2017-08-09T13:57:50.745Z,25.51
2017-08-09T14:00:18.569Z,25.28
2017-08-09T14:02:46.517Z,25.32
2017-08-09T14:05:14.345Z,25.18
2017-08-09T14:07:42.270Z,25.18
2017-08-09T14:10:10.084Z,25.43
2017-08-09T14:12:38.128Z,25.58
2017-08-09T14:15:05.959Z,25.37
2017-08-09T14:17:33.836Z,25.13
2017-08-09T14:20:01.673Z,24.74
2017-08-09T14:22:29.584Z,24.29
2017-08-09T14:24:57.413Z,24.21
2017-08-09T14:27:25.245Z,24.05
2017-08-09T14:29:53.149Z,24.19
2017-08-09T14:32:21.005Z,24.60
2017-08-09T14:34:48.899Z,24.87
2017-08-09T14:37:16.723Z,25.19
2017-08-09T14:39:44.606Z,25.56
2017-08-09T14:42:12.437Z,25.79
2017-08-09T14:44:40.362Z,25.85
2017-08-09T14:47:08.261Z,25.50
2017-08-09T14:49:36.168Z,25.32
2017-08-09T14:52:03.983Z,25.35
2017-08-09T14:54:31.759Z,25.46
2017-08-09T14:56:59.585Z,25.46
2017-08-09T14:59:27.338Z,25.27
2017-08-09T15:01:55.150Z,25.04
2017-08-09T15:04:22.918Z,24.89
2017-08-09T15:06:50.775Z,24.70
2017-08-09T15:09:18.620Z,24.46
2017-08-09T15:11:46.517Z,24.46
2017-08-09T15:14:14.295Z,24.51
2017-08-09T15:16:42.101Z,24.48
2017-08-09T15:19:09.881Z,24.14
2017-08-09T15:21:37.667Z,23.79
2017-08-09T15:24:05.423Z,23.61
2017-08-09T15:26:33.317Z,23.57
2017-08-09T15:29:01.129Z,23.51
2017-08-09T15:31:28.961Z,23.51
2017-08-09T15:33:56.800Z,23.57
2017-08-09T15:36:24.623Z,23.73
2017-08-09T15:38:52.504Z,23.91
2017-08-09T15:41:20.353Z,23.98
2017-08-09T15:43:48.134Z,23.96
2017-08-09T15:46:16.296Z,23.89
2017-08-09T15:48:44.122Z,23.70
2017-08-09T15:51:11.881Z,23.58
2017-08-09T15:53:39.802Z,23.72
2017-08-09T15:56:07.546Z,23.99
2017-08-09T15:58:35.428Z,24.34
2017-08-09T16:01:03.189Z,24.34
2017-08-09T16:03:30.977Z,24.27
2017-08-09T16:05:58.767Z,24.19
2017-08-09T16:08:26.484Z,23.82
2017-08-09T16:10:54.351Z,23.27
2017-08-09T16:13:22.107Z,23.03
2017-08-09T16:15:49.871Z,22.81
2017-08-09T16:18:17.596Z,22.73
2017-08-09T16:20:45.502Z,22.98
2017-08-09T16:23:13.262Z,23.33
2017-08-09T16:25:41.164Z,23.70
2017-08-09T16:28:09.004Z,24.07
2017-08-09T16:30:36.796Z,24.31
2017-08-09T16:33:04.588Z,24.33
2017-08-09T16:35:32.514Z,24.37
2017-08-09T16:38:00.328Z,24.23
2017-08-09T16:40:28.144Z,24.07
2017-08-09T16:42:55.919Z,24.02
2017-08-09T16:45:23.684Z,24.01
2017-08-09T16:47:51.521Z,23.87
2017-08-09T16:50:19.399Z,23.70
2017-08-09T16:52:47.190Z,23.68
2017-08-09T16:55:14.920Z,23.66
2017-08-09T16:57:42.805Z,23.60
2017-08-09T17:00:10.648Z,23.51
2017-08-09T17:02:38.559Z,23.51
2017-08-09T17:05:06.416Z,23.53
2017-08-09T17:07:34.224Z,23.44
2017-08-09T17:10:02.056Z,23.34
2017-08-09T17:12:29.917Z,23.30
2017-08-09T17:14:57.784Z,23.23
2017-08-09T17:17:25.647Z,23.22
2017-08-09T17:19:53.533Z,23.18
2017-08-09T17:22:21.375Z,23.15
2017-08-09T17:24:49.261Z,23.06
2017-08-09T17:27:17.102Z,22.92
2017-08-09T17:29:44.973Z,22.80
2017-08-09T17:32:12.804Z,22.75
2017-08-09T17:34:40.725Z,22.75
2017-08-09T17:37:08.674Z,22.69
2017-08-09T17:39:36.439Z,22.61
2017-08-09T17:42:04.172Z,22.50
2017-08-09T17:44:31.979Z,22.37
2017-08-09T17:46:59.717Z,22.24
2017-08-09T17:49:27.469Z,22.18
2017-08-09T17:51:55.241Z,22.04
2017-08-09T17:54:22.988Z,21.94
2017-08-09T17:56:50.771Z,21.85
2017-08-09T17:59:18.506Z,21.76
2017-08-09T18:01:46.312Z,21.72
2017-08-09T18:04:14.047Z,22.03
2017-08-09T18:06:41.996Z,22.59
2017-08-09T18:09:09.720Z,23.10
2017-08-09T18:11:37.419Z,23.48
2017-08-09T18:14:05.190Z,23.65
2017-08-09T18:16:32.903Z,23.65
2017-08-09T18:19:00.706Z,23.52
2017-08-09T18:21:28.447Z,23.32
2017-08-09T18:23:56.204Z,23.16
2017-08-09T18:26:23.959Z,22.97
2017-08-09T18:28:51.700Z,22.57
2017-08-09T18:31:19.446Z,22.35
2017-08-09T18:33:47.204Z,22.08
2017-08-09T18:36:14.961Z,21.84
2017-08-09T18:38:42.756Z,21.65
2017-08-09T18:41:10.535Z,21.28
2017-08-09T18:43:38.320Z,20.92
2017-08-09T18:46:06.095Z,20.46
2017-08-09T18:48:33.924Z,20.01
2017-08-09T18:51:01.690Z,19.60
2017-08-09T18:53:29.430Z,19.22
2017-08-09T18:55:57.181Z,18.93
2017-08-09T18:58:24.939Z,18.65
2017-08-09T19:00:52.747Z,18.41
2017-08-09T19:03:20.469Z,18.15
2017-08-09T19:05:48.341Z,17.97
2017-08-09T19:08:16.177Z,17.83
2017-08-09T19:10:44.031Z,17.66
2017-08-09T19:13:11.804Z,17.56
2017-08-09T19:15:39.610Z,17.47
2017-08-09T19:18:07.462Z,17.38
2017-08-09T19:20:35.231Z,17.30
2017-08-09T19:23:03.116Z,17.25
2017-08-09T19:25:30.925Z,17.17
2017-08-09T19:28:01.194Z,17.09
2017-08-09T19:30:29.000Z,17.00
2017-08-09T19:32:56.852Z,16.87
2017-08-09T19:35:24.638Z,16.74
2017-08-09T19:37:52.553Z,16.66
2017-08-09T19:40:20.282Z,16.62
2017-08-09T19:42:48.012Z,16.55
2017-08-09T19:45:15.785Z,16.38
2017-08-09T19:47:43.529Z,16.28
2017-08-09T19:50:11.350Z,16.25
2017-08-09T19:52:39.145Z,16.24
2017-08-09T19:55:06.952Z,16.21
2017-08-09T19:57:34.688Z,16.13
2017-08-09T20:00:02.461Z,16.09
2017-08-09T20:02:30.191Z,16.02
2017-08-09T20:04:58.001Z,15.93
2017-08-09T20:07:25.741Z,15.89
2017-08-09T20:09:53.557Z,15.74
2017-08-09T20:12:21.302Z,15.60
2017-08-09T20:14:49.060Z,15.48
2017-08-09T20:17:16.863Z,15.39
2017-08-09T20:19:44.617Z,15.31
2017-08-09T20:22:12.448Z,15.28
2017-08-09T20:24:40.207Z,15.16
2017-08-09T20:27:08.013Z,15.05
2017-08-09T20:29:35.727Z,14.94
2017-08-09T20:32:03.483Z,14.89
2017-08-09T20:34:31.311Z,14.80
2017-08-09T20:36:59.064Z,14.74
2017-08-09T20:39:26.885Z,14.69
2017-08-09T20:41:54.683Z,14.64
2017-08-09T20:44:22.404Z,14.61
2017-08-09T20:46:50.230Z,14.53
2017-08-09T20:49:18.117Z,14.45
2017-08-09T20:51:45.914Z,14.38
2017-08-09T20:54:13.788Z,14.38
2017-08-09T20:56:41.612Z,14.37
2017-08-09T20:59:09.497Z,14.38
2017-08-09T21:01:37.313Z,14.39
2017-08-09T21:04:05.320Z,14.36
2017-08-09T21:06:33.166Z,14.27
2017-08-09T21:09:01.077Z,14.16
2017-08-09T21:11:28.898Z,14.09
2017-08-09T21:13:56.816Z,14.11
2017-08-09T21:16:24.672Z,14.05
2017-08-09T21:18:52.493Z,14.00
2017-08-09T21:21:20.396Z,13.96
2017-08-09T21:23:48.267Z,13.87
2017-08-09T21:26:16.153Z,13.77
2017-08-09T21:28:44.007Z,13.72
2017-08-09T21:31:12.027Z,13.68
2017-08-09T21:33:39.861Z,13.65
2017-08-09T21:36:07.743Z,13.57
2017-08-09T21:38:35.499Z,13.51
2017-08-09T21:41:03.318Z,13.40
2017-08-09T21:43:31.168Z,13.31
2017-08-09T21:45:59.171Z,13.24
2017-08-09T21:48:27.016Z,13.18
2017-08-09T21:50:54.753Z,13.20
2017-08-09T21:53:22.547Z,13.18
2017-08-09T21:55:50.310Z,13.17
2017-08-09T21:58:18.106Z,13.17
2017-08-09T22:00:45.970Z,13.23
2017-08-09T22:03:13.907Z,13.24
2017-08-09T22:05:41.764Z,13.20
2017-08-09T22:08:09.545Z,13.24
2017-08-09T22:10:37.401Z,13.23
2017-08-09T22:13:05.132Z,13.21
2017-08-09T22:15:33.026Z,13.06
2017-08-09T22:18:00.850Z,12.99
2017-08-09T22:20:28.746Z,12.91
2017-08-09T22:22:56.656Z,12.89
2017-08-09T22:25:24.537Z,12.80
2017-08-09T22:27:52.365Z,12.77
2017-08-09T22:30:20.252Z,12.74
2017-08-09T22:32:48.092Z,12.74
2017-08-09T22:35:15.967Z,12.76
2017-08-09T22:37:43.805Z,12.69
2017-08-09T22:40:11.696Z,12.68
2017-08-09T22:42:40.387Z,12.77
2017-08-09T22:45:08.133Z,12.68
2017-08-09T22:47:35.927Z,12.65
2017-08-09T22:50:03.758Z,12.57
2017-08-09T22:52:31.648Z,12.55
2017-08-09T22:54:59.483Z,12.50
2017-08-09T22:57:28.391Z,12.45
2017-08-09T22:59:56.199Z,12.37
2017-08-09T23:02:24.020Z,12.33
2017-08-09T23:04:51.852Z,12.33
2017-08-09T23:07:19.744Z,12.31
2017-08-09T23:09:47.589Z,12.33
2017-08-09T23:12:15.416Z,12.33
2017-08-09T23:14:43.310Z,12.34
2017-08-09T23:17:11.135Z,12.25
2017-08-09T23:19:38.908Z,12.19
2017-08-09T23:22:06.750Z,12.11
2017-08-09T23:24:34.532Z,12.07
2017-08-09T23:27:02.374Z,12.04
2017-08-09T23:29:30.248Z,11.99
2017-08-09T23:31:58.064Z,11.93
2017-08-09T23:34:25.928Z,11.82
2017-08-09T23:36:53.769Z,11.72
2017-08-09T23:39:21.624Z,11.66
2017-08-09T23:41:49.389Z,11.69
2017-08-09T23:44:17.168Z,11.72
2017-08-09T23:46:45.041Z,11.72
2017-08-09T23:49:12.878Z,11.74
2017-08-09T23:51:41.573Z,11.71
2017-08-09T23:54:15.288Z,11.67
